Manigotagan, Canada
Current Conditions -  °F | °C
As of 8:00 PM on Thursday 18 Dec 2014 (Local Time) from CYWG Reporting Station
Overcast Overcast  
Wind Chill:   Ceiling: 6300
Heat Index: 19°   Visibility: 15mi
Dew Point: 14°   Wind: 10mph
Humidity: 80%   Direction: 180°S
Pressure: 30.14"   Gusts: NA
Location:  51.1°N, 96.3°W
Report Text: CYWG 190200Z 18009KT 15SM OVC063 M07/M10 A3014 RMK SC8 SLP227
Loading
Personal Weather Stations






























Interactive Weather Map New forecast layout! Learn more

10-Day Weather Forecast

Advertisements
Track Severe Weather on mobile